Time;durP1;ratioP1;P1;durP2;ratioP2;P2;SDS_P1;SDS_P2;PMS_P1;PMS_P2;Temp;Humidity;BMP_temperature;BMP_pressure;BME280_temperature;BME280_humidity;BME280_pressure;Samples;Min_cycle;Max_cycle;Signal;HPM_P1;HPM_P2
2023/05/24 00:00:29;;;;;;;7.17;2.70;;;9.40;99.00;;;;;;6186510;23;20190;-71
2023/05/24 00:02:56;;;;;;;7.20;2.50;;;9.30;99.40;;;;;;6187267;23;20178;-70
2023/05/24 00:05:22;;;;;;;9.23;2.90;;;9.40;99.60;;;;;;6187843;23;20186;-70
2023/05/24 00:07:48;;;;;;;9.40;3.00;;;9.30;99.90;;;;;;6187867;23;20378;-71
2023/05/24 00:10:14;;;;;;;6.67;2.90;;;9.40;99.60;;;;;;6189356;23;20401;-71
2023/05/24 00:12:42;;;;;;;7.97;2.80;;;9.30;99.90;;;;;;6201289;23;20191;-74
2023/05/24 00:15:08;;;;;;;6.13;2.83;;;9.20;99.90;;;;;;6203682;23;20226;-70
2023/05/24 00:17:39;;;;;;;9.20;2.30;;;9.20;99.90;;;;;;6187595;23;20355;-70
2023/05/24 00:20:09;;;;;;;15.73;4.07;;;9.20;99.90;;;;;;6186665;23;20163;-70
2023/05/24 00:22:35;;;;;;;8.70;2.90;;;9.10;99.90;;;;;;6187514;23;20362;-71
2023/05/24 00:25:01;;;;;;;10.17;3.23;;;9.10;99.90;;;;;;6187234;23;20576;-71
2023/05/24 00:27:26;;;;;;;8.73;2.60;;;9.10;99.90;;;;;;6185810;23;20362;-71
2023/05/24 00:29:52;;;;;;;10.87;2.70;;;9.00;99.90;;;;;;6184613;23;20519;-69
2023/05/24 00:32:17;;;;;;;10.90;3.17;;;9.00;99.90;;;;;;6185718;23;20162;-70
2023/05/24 00:34:43;;;;;;;11.50;3.30;;;8.90;99.90;;;;;;6185523;23;20138;-70
2023/05/24 00:37:11;;;;;;;8.20;2.93;;;8.90;99.90;;;;;;6161021;23;20229;-71
2023/05/24 00:39:36;;;;;;;5.40;2.23;;;8.80;99.90;;;;;;6187022;23;20390;-70
2023/05/24 00:42:02;;;;;;;11.53;3.43;;;8.80;99.90;;;;;;6187164;23;20427;-71
2023/05/24 00:44:28;;;;;;;7.37;2.57;;;8.70;99.90;;;;;;6186575;23;20174;-70
2023/05/24 00:46:54;;;;;;;9.50;3.20;;;8.70;99.90;;;;;;6191716;23;20135;-68
2023/05/24 00:49:21;;;;;;;5.47;2.73;;;8.70;99.90;;;;;;6185544;23;20608;-70
2023/05/24 00:51:49;;;;;;;8.73;2.80;;;8.70;99.90;;;;;;6164374;23;20197;-69
2023/05/24 00:54:15;;;;;;;9.13;3.93;;;8.60;99.90;;;;;;6193540;23;20378;-69
2023/05/24 00:56:42;;;;;;;7.77;2.60;;;8.60;99.90;;;;;;6189185;23;20362;-71
2023/05/24 00:59:08;;;;;;;8.60;3.53;;;8.60;99.90;;;;;;6184734;23;20166;-73
2023/05/24 01:01:34;;;;;;;6.43;2.80;;;8.50;99.90;;;;;;6187471;23;20363;-70
2023/05/24 01:03:59;;;;;;;9.07;2.83;;;8.50;99.90;;;;;;6187552;23;20492;-70
2023/05/24 01:06:26;;;;;;;13.07;3.53;;;8.50;99.90;;;;;;6187431;23;20228;-70
2023/05/24 01:09:01;;;;;;;8.43;2.50;;;8.50;99.90;;;;;;6185273;23;20167;-70
2023/05/24 01:11:48;;;;;;;9.73;3.27;;;8.30;99.90;;;;;;6187106;23;20397;-72
2023/05/24 01:14:25;;;;;;;12.87;3.10;;;8.40;99.90;;;;;;6185770;23;20447;-70
2023/05/24 01:16:56;;;;;;;5.50;2.00;;;8.40;99.90;;;;;;6186806;23;20392;-70
2023/05/24 01:19:35;;;;;;;5.60;2.57;;;8.30;99.90;;;;;;6160286;23;20402;-70
2023/05/24 01:22:15;;;;;;;7.33;2.60;;;8.30;99.90;;;;;;6160585;23;20381;-69
2023/05/24 01:24:56;;;;;;;11.00;2.83;;;8.20;99.90;;;;;;6187102;23;20401;-68
2023/05/24 01:27:22;;;;;;;11.37;3.10;;;8.20;99.90;;;;;;6185122;23;20374;-70
2023/05/24 01:29:52;;;;;;;6.70;2.97;;;8.20;99.90;;;;;;6186033;23;20456;-69
2023/05/24 01:32:18;;;;;;;8.53;2.40;;;8.20;99.90;;;;;;6186687;23;20369;-70
2023/05/24 01:34:44;;;;;;;19.77;3.63;;;8.10;99.90;;;;;;6187140;23;20374;-72
2023/05/24 01:37:09;;;;;;;11.23;3.00;;;8.10;99.90;;;;;;6186415;23;20465;-72
2023/05/24 01:39:36;;;;;;;7.43;2.47;;;8.10;99.90;;;;;;6185179;23;20250;-70
2023/05/24 01:42:23;;;;;;;7.10;3.13;;;8.00;99.90;;;;;;6185475;23;20374;-68
2023/05/24 01:45:01;;;;;;;9.13;3.00;;;8.00;99.90;;;;;;6186686;23;20162;-69
2023/05/24 01:47:27;;;;;;;10.13;3.00;;;7.90;99.90;;;;;;6160218;23;20412;-70
2023/05/24 01:50:06;;;;;;;14.43;3.40;;;8.00;99.90;;;;;;6187105;23;20402;-69
2023/05/24 01:52:33;;;;;;;7.03;2.40;;;7.90;99.90;;;;;;6186974;23;20141;-69
2023/05/24 01:55:02;;;;;;;8.60;2.67;;;7.90;99.90;;;;;;6187231;23;20671;-70
2023/05/24 01:57:29;;;;;;;6.97;1.97;;;7.90;99.90;;;;;;6188169;23;20570;-70
2023/05/24 01:59:57;;;;;;;5.83;2.77;;;7.80;99.90;;;;;;6161560;23;20464;-70
2023/05/24 02:02:23;;;;;;;8.53;2.37;;;7.80;99.90;;;;;;6189004;23;20377;-70
2023/05/24 02:04:48;;;;;;;8.10;2.50;;;7.70;99.90;;;;;;6188669;23;20707;-70
2023/05/24 02:07:14;;;;;;;5.43;2.40;;;7.70;99.90;;;;;;6187078;23;20550;-70
2023/05/24 02:09:39;;;;;;;6.70;2.67;;;7.80;99.90;;;;;;6186754;23;20217;-70
2023/05/24 02:12:06;;;;;;;10.97;3.30;;;7.70;99.90;;;;;;6188091;23;20132;-70
2023/05/24 02:14:31;;;;;;;8.77;3.00;;;7.70;99.90;;;;;;6187968;23;20131;-70
2023/05/24 02:16:59;;;;;;;6.93;2.80;;;7.70;99.90;;;;;;6187420;23;20457;-70
2023/05/24 02:19:25;;;;;;;8.70;2.87;;;7.70;99.90;;;;;;6187649;23;20485;-69
2023/05/24 02:21:51;;;;;;;8.13;2.77;;;7.70;99.90;;;;;;6188618;23;20788;-72
2023/05/24 02:24:17;;;;;;;6.03;2.77;;;7.70;99.90;;;;;;6188229;23;20182;-68
2023/05/24 02:26:43;;;;;;;11.03;3.87;;;7.70;99.90;;;;;;6188442;23;20544;-69
2023/05/24 02:29:09;;;;;;;7.20;2.27;;;7.70;99.90;;;;;;6187541;23;20161;-69
2023/05/24 02:31:35;;;;;;;8.80;3.20;;;7.70;99.90;;;;;;6188058;23;20358;-69
2023/05/24 02:34:01;;;;;;;5.70;2.40;;;7.60;99.90;;;;;;6187591;23;20373;-69
2023/05/24 02:36:26;;;;;;;11.20;2.97;;;7.60;99.90;;;;;;6188059;23;20194;-70
2023/05/24 02:38:52;;;;;;;5.90;2.53;;;7.60;99.90;;;;;;6187331;23;20418;-70
2023/05/24 02:41:18;;;;;;;8.93;3.17;;;7.60;99.90;;;;;;6188553;23;20218;-70
2023/05/24 02:43:45;;;;;;;10.93;3.20;;;7.60;99.90;;;;;;6188321;23;20366;-69
2023/05/24 02:46:11;;;;;;;6.23;2.83;;;7.60;99.90;;;;;;6188171;23;20153;-70
2023/05/24 02:48:37;;;;;;;8.30;3.23;;;7.60;99.90;;;;;;6187038;23;20758;-68
2023/05/24 02:51:03;;;;;;;7.20;2.30;;;7.50;99.90;;;;;;6187663;23;20362;-70
2023/05/24 02:53:30;;;;;;;14.13;3.17;;;7.50;99.90;;;;;;6190585;23;20135;-72
2023/05/24 02:55:56;;;;;;;7.43;2.60;;;7.50;99.90;;;;;;6160981;23;20682;-71
2023/05/24 02:58:21;;;;;;;8.40;2.50;;;7.50;99.90;;;;;;6186884;23;20370;-72
2023/05/24 03:00:49;;;;;;;7.20;3.00;;;7.50;99.90;;;;;;6161271;23;20370;-67
2023/05/24 03:03:17;;;;;;;8.90;2.70;;;7.40;99.90;;;;;;6186419;23;20405;-69
2023/05/24 03:05:44;;;;;;;5.70;2.30;;;7.50;99.90;;;;;;6186286;23;20440;-70
2023/05/24 03:08:11;;;;;;;10.63;3.80;;;7.40;99.90;;;;;;6161050;23;20370;-70
2023/05/24 03:10:37;;;;;;;8.07;2.93;;;7.40;99.90;;;;;;6185767;23;20398;-70
2023/05/24 03:13:05;;;;;;;11.57;4.47;;;7.40;99.90;;;;;;6160701;23;20242;-70
2023/05/24 03:15:31;;;;;;;11.60;3.37;;;7.40;99.90;;;;;;6186571;23;20421;-70
2023/05/24 03:17:56;;;;;;;8.30;2.77;;;7.40;99.90;;;;;;6186559;23;20779;-70
2023/05/24 03:20:23;;;;;;;7.03;2.67;;;7.40;99.90;;;;;;6161101;23;20491;-69
2023/05/24 03:22:50;;;;;;;7.50;2.90;;;7.30;99.90;;;;;;6186418;23;20477;-70
2023/05/24 03:25:15;;;;;;;4.13;2.20;;;7.30;99.90;;;;;;6186092;23;20413;-70
2023/05/24 03:27:41;;;;;;;6.50;2.70;;;7.30;99.90;;;;;;6187011;23;20462;-69
2023/05/24 03:30:08;;;;;;;8.87;2.87;;;7.30;99.90;;;;;;6160720;23;20402;-70
2023/05/24 03:32:40;;;;;;;7.80;3.17;;;7.30;99.90;;;;;;6187186;23;20135;-70
2023/05/24 03:35:06;;;;;;;11.03;3.03;;;7.20;99.90;;;;;;6185890;23;20374;-70
2023/05/24 03:37:32;;;;;;;7.90;3.63;;;7.20;99.90;;;;;;6186912;23;20247;-70
2023/05/24 03:39:57;;;;;;;10.70;3.50;;;7.20;99.90;;;;;;6160933;23;20739;-70
2023/05/24 03:42:41;;;;;;;10.13;4.23;;;7.20;99.90;;;;;;6186616;23;20205;-69
2023/05/24 03:45:08;;;;;;;8.40;3.40;;;7.30;99.90;;;;;;6185017;23;20850;-69
2023/05/24 03:47:34;;;;;;;6.43;3.13;;;7.30;99.90;;;;;;6187603;23;20382;-69
2023/05/24 03:49:59;;;;;;;13.37;3.90;;;7.20;99.90;;;;;;6185259;23;20656;-70
2023/05/24 03:52:25;;;;;;;9.43;3.90;;;7.20;99.90;;;;;;6190456;23;20162;-71
2023/05/24 03:54:51;;;;;;;15.23;3.13;;;7.20;99.90;;;;;;6186398;23;20146;-69
2023/05/24 03:57:17;;;;;;;13.20;3.27;;;7.20;99.90;;;;;;6161083;23;20163;-68
2023/05/24 03:59:42;;;;;;;5.77;2.70;;;7.20;99.90;;;;;;6184616;23;20254;-70
2023/05/24 04:02:08;;;;;;;7.33;3.50;;;7.20;99.90;;;;;;6190824;23;20362;-71
2023/05/24 04:04:33;;;;;;;8.77;3.47;;;7.30;99.90;;;;;;6192178;23;20593;-69
2023/05/24 04:06:59;;;;;;;16.53;4.57;;;7.30;99.90;;;;;;6191453;23;20158;-69
2023/05/24 04:09:25;;;;;;;12.00;4.67;;;7.40;99.90;;;;;;6192317;23;20162;-69
2023/05/24 04:11:51;;;;;;;3.70;2.73;;;7.40;99.90;;;;;;6191423;23;20428;-71
2023/05/24 04:14:16;;;;;;;13.73;3.80;;;7.50;99.90;;;;;;6190936;23;20158;-70
2023/05/24 04:16:43;;;;;;;7.13;3.20;;;7.50;99.90;;;;;;6190415;23;20386;-71
2023/05/24 04:19:11;;;;;;;9.43;3.93;;;7.60;99.90;;;;;;6165708;23;20181;-70
2023/05/24 04:21:38;;;;;;;14.10;6.27;;;7.60;99.90;;;;;;6167880;23;20747;-70
2023/05/24 04:24:05;;;;;;;12.83;4.17;;;7.70;99.90;;;;;;6202688;23;20453;-70
2023/05/24 04:26:33;;;;;;;17.43;5.13;;;7.80;99.90;;;;;;6206218;23;20345;-72
2023/05/24 04:28:59;;;;;;;10.60;3.90;;;7.90;99.90;;;;;;6173699;23;20437;-72
2023/05/24 04:31:28;;;;;;;18.20;4.37;;;8.00;99.90;;;;;;6206778;23;20378;-71
2023/05/24 04:33:54;;;;;;;10.33;3.17;;;8.10;99.90;;;;;;6183191;23;20474;-71
2023/05/24 04:36:21;;;;;;;9.83;3.20;;;8.10;99.90;;;;;;6199211;23;20425;-71
2023/05/24 04:38:47;;;;;;;8.97;3.63;;;8.10;99.90;;;;;;6198015;23;20424;-70
2023/05/24 04:41:13;;;;;;;13.30;4.27;;;8.20;99.90;;;;;;6192547;23;20358;-70
2023/05/24 04:43:39;;;;;;;16.50;4.70;;;8.20;99.90;;;;;;6198415;23;20190;-71
2023/05/24 04:46:05;;;;;;;10.07;4.07;;;8.30;99.90;;;;;;6199113;23;20135;-74
2023/05/24 04:48:31;;;;;;;18.07;4.17;;;8.40;99.90;;;;;;6176072;23;20454;-71
2023/05/24 04:50:57;;;;;;;14.53;6.57;;;8.50;99.90;;;;;;6207180;23;20354;-74
2023/05/24 04:53:24;;;;;;;19.23;4.50;;;8.70;99.90;;;;;;6146886;23;20147;-74
2023/05/24 04:55:50;;;;;;;13.27;4.20;;;9.00;99.90;;;;;;6151279;23;20382;-72
2023/05/24 04:58:16;;;;;;;10.77;5.40;;;9.40;99.90;;;;;;6191978;23;20808;-71
2023/05/24 05:00:43;;;;;;;15.50;4.20;;;9.90;99.90;;;;;;6199784;23;20240;-72
2023/05/24 05:03:09;;;;;;;13.20;4.70;;;10.40;99.90;;;;;;6182757;23;20642;-74
2023/05/24 05:05:35;;;;;;;13.67;4.70;;;10.60;99.90;;;;;;6194053;23;20412;-70
2023/05/24 05:08:01;;;;;;;7.30;3.40;;;10.80;99.90;;;;;;6191860;23;20393;-70
2023/05/24 05:10:27;;;;;;;9.43;3.47;;;11.10;99.90;;;;;;6193618;23;20167;-72
2023/05/24 05:12:53;;;;;;;16.60;5.60;;;11.50;99.50;;;;;;6195520;23;20365;-70
2023/05/24 05:15:21;;;;;;;13.73;4.20;;;11.80;96.00;;;;;;6193846;23;20139;-70
2023/05/24 05:17:47;;;;;;;18.77;5.73;;;12.00;93.60;;;;;;6193023;23;20408;-70
2023/05/24 05:20:12;;;;;;;13.47;4.53;;;12.10;93.00;;;;;;6193011;23;20432;-71
2023/05/24 05:22:38;;;;;;;15.27;6.00;;;12.10;91.80;;;;;;6197636;23;20139;-73
2023/05/24 05:25:04;;;;;;;18.50;5.23;;;12.10;90.80;;;;;;6199783;23;20206;-74
2023/05/24 05:27:29;;;;;;;10.33;4.33;;;12.20;91.60;;;;;;6199105;23;20226;-73
2023/05/24 05:29:55;;;;;;;15.37;4.83;;;12.40;90.10;;;;;;6169553;23;20409;-73
2023/05/24 05:32:20;;;;;;;18.40;4.10;;;12.50;86.40;;;;;;6197357;23;20127;-71
2023/05/24 05:34:46;;;;;;;10.60;4.07;;;12.70;86.00;;;;;;6194600;23;20142;-71
2023/05/24 05:37:12;;;;;;;16.40;5.03;;;13.10;85.30;;;;;;6170025;23;20210;-73
2023/05/24 05:39:37;;;;;;;11.87;4.63;;;13.20;78.50;;;;;;6171810;23;20166;-75
2023/05/24 05:42:03;;;;;;;12.63;3.80;;;13.40;77.90;;;;;;6196270;23;20158;-72
2023/05/24 05:44:29;;;;;;;17.17;4.70;;;13.70;77.00;;;;;;6197192;23;20163;-74
2023/05/24 05:46:55;;;;;;;12.03;4.60;;;13.80;71.40;;;;;;6196473;23;20131;-72
2023/05/24 05:49:21;;;;;;;15.30;5.30;;;14.00;71.00;;;;;;6196924;23;20217;-72
2023/05/24 05:51:48;;;;;;;5.93;3.03;;;13.90;69.80;;;;;;6197721;23;20393;-73
2023/05/24 05:54:15;;;;;;;18.67;5.10;;;14.10;71.10;;;;;;6173269;23;20166;-74
2023/05/24 05:56:44;;;;;;;18.57;4.63;;;14.20;67.60;;;;;;6199722;23;20434;-72
2023/05/24 05:59:14;;;;;;;17.30;5.30;;;14.00;67.20;;;;;;6169083;23;20408;-71
2023/05/24 06:01:40;;;;;;;16.80;5.63;;;14.20;67.50;;;;;;6196494;23;20369;-71
2023/05/24 06:04:06;;;;;;;19.27;6.77;;;14.20;66.00;;;;;;6195709;23;20410;-76
2023/05/24 06:06:32;;;;;;;12.37;4.60;;;14.10;65.70;;;;;;6198053;23;20448;-74
2023/05/24 06:08:59;;;;;;;18.70;5.43;;;14.00;68.50;;;;;;6197070;23;20382;-75
2023/05/24 06:11:25;;;;;;;16.00;5.50;;;14.20;67.60;;;;;;6198250;23;20138;-72
2023/05/24 06:13:51;;;;;;;18.30;8.63;;;14.40;66.30;;;;;;6200949;23;20377;-73
2023/05/24 06:16:19;;;;;;;14.17;5.67;;;14.60;63.60;;;;;;6196393;23;20409;-74
2023/05/24 06:18:46;;;;;;;14.37;6.00;;;14.60;63.60;;;;;;6196315;23;20408;-73
2023/05/24 06:21:13;;;;;;;13.53;5.20;;;14.70;64.10;;;;;;6170135;23;20412;-72
2023/05/24 06:23:38;;;;;;;12.57;6.60;;;14.90;62.30;;;;;;6199864;23;20401;-73
2023/05/24 06:26:08;;;;;;;10.93;4.60;;;15.10;61.00;;;;;;6199156;23;20350;-75
2023/05/24 06:28:34;;;;;;;13.00;4.70;;;15.30;61.00;;;;;;6197924;23;20205;-72
2023/05/24 06:31:00;;;;;;;15.10;4.33;;;15.50;59.40;;;;;;6199458;23;20393;-74
2023/05/24 06:33:26;;;;;;;14.93;4.63;;;15.60;59.40;;;;;;6199427;23;20466;-71
2023/05/24 06:35:52;;;;;;;15.43;6.23;;;15.50;58.20;;;;;;6200254;23;20382;-72
2023/05/24 06:38:20;;;;;;;18.80;5.73;;;15.30;58.80;;;;;;6172728;23;20381;-73
2023/05/24 06:40:46;;;;;;;16.83;5.47;;;15.20;58.60;;;;;;6198809;23;20139;-72
2023/05/24 06:43:12;;;;;;;16.57;6.03;;;15.10;58.80;;;;;;6169615;23;20453;-72
2023/05/24 06:45:39;;;;;;;16.30;6.10;;;15.20;58.70;;;;;;6171276;23;20178;-71
2023/05/24 06:48:05;;;;;;;19.07;6.20;;;15.30;58.30;;;;;;6197092;23;20437;-74
2023/05/24 06:50:31;;;;;;;9.90;4.93;;;15.30;57.00;;;;;;6197947;23;20512;-75
2023/05/24 06:52:57;;;;;;;12.77;5.13;;;15.20;56.70;;;;;;6175673;23;20517;-74
2023/05/24 06:55:22;;;;;;;12.60;4.20;;;15.10;56.90;;;;;;6174101;23;20476;-75
2023/05/24 06:57:48;;;;;;;17.70;4.23;;;15.20;58.00;;;;;;6197355;23;20150;-73
2023/05/24 07:00:14;;;;;;;12.43;4.30;;;15.30;57.60;;;;;;6197409;23;20170;-73
2023/05/24 07:02:40;;;;;;;14.13;4.43;;;15.50;57.20;;;;;;6198398;23;20138;-73
2023/05/24 07:05:13;;;;;;;18.20;5.20;;;15.40;56.50;;;;;;6173490;23;20173;-72
2023/05/24 07:07:40;;;;;;;16.13;4.80;;;15.30;57.10;;;;;;6202459;23;20382;-74
2023/05/24 07:10:07;;;;;;;14.30;4.13;;;15.10;56.80;;;;;;6150599;23;20400;-75
2023/05/24 07:12:32;;;;;;;9.70;4.40;;;14.80;57.00;;;;;;6178242;23;20814;-74
2023/05/24 07:14:58;;;;;;;16.40;4.90;;;14.50;58.30;;;;;;6200093;23;20379;-73
2023/05/24 07:17:24;;;;;;;12.20;4.33;;;14.50;58.40;;;;;;6168975;23;20229;-73
2023/05/24 07:19:50;;;;;;;24.97;5.97;;;14.30;57.60;;;;;;6196582;23;20197;-73
2023/05/24 07:22:15;;;;;;;14.50;4.53;;;13.90;59.90;;;;;;6172655;23;20184;-73
2023/05/24 07:24:42;;;;;;;12.67;4.33;;;13.60;61.50;;;;;;6196587;23;20411;-72
2023/05/24 07:27:08;;;;;;;16.80;5.70;;;13.50;60.60;;;;;;6171010;23;20412;-72
2023/05/24 07:29:33;;;;;;;13.90;4.10;;;13.40;59.90;;;;;;6172775;23;20406;-73
2023/05/24 07:31:59;;;;;;;10.00;3.90;;;13.40;60.20;;;;;;6197208;23;20147;-72
2023/05/24 07:34:28;;;;;;;17.53;5.50;;;13.30;61.20;;;;;;6173199;23;20146;-75
2023/05/24 07:36:55;;;;;;;9.53;4.10;;;13.60;61.20;;;;;;6193916;23;20422;-74
2023/05/24 07:39:22;;;;;;;10.67;4.60;;;13.70;60.90;;;;;;6169138;23;20487;-73
2023/05/24 07:41:47;;;;;;;17.73;4.60;;;13.80;58.80;;;;;;6171543;23;20373;-72
2023/05/24 07:44:13;;;;;;;21.93;4.00;;;13.70;58.90;;;;;;6171510;23;20434;-73
2023/05/24 07:46:39;;;;;;;15.30;4.60;;;13.40;59.50;;;;;;6167277;23;20137;-72
2023/05/24 07:49:05;;;;;;;17.73;5.13;;;13.20;61.80;;;;;;6168126;23;20173;-71
2023/05/24 07:51:31;;;;;;;15.00;4.70;;;13.10;62.50;;;;;;6167564;23;20137;-71
2023/05/24 07:53:57;;;;;;;18.47;4.70;;;13.20;63.90;;;;;;6171887;23;20143;-74
2023/05/24 07:56:23;;;;;;;18.87;5.13;;;13.30;64.10;;;;;;6168615;23;20799;-74
2023/05/24 07:58:50;;;;;;;11.17;3.30;;;13.50;62.60;;;;;;6172047;23;20178;-73
2023/05/24 08:01:17;;;;;;;11.13;4.07;;;13.80;61.40;;;;;;6168808;23;20371;-74
2023/05/24 08:03:44;;;;;;;9.93;3.60;;;13.90;60.00;;;;;;6170580;23;20423;-73
2023/05/24 08:06:14;;;;;;;12.17;4.60;;;14.00;59.40;;;;;;6191261;23;20414;-73
2023/05/24 08:08:42;;;;;;;11.37;3.90;;;14.40;57.40;;;;;;6169319;23;20402;-72
2023/05/24 08:11:11;;;;;;;12.57;5.10;;;14.50;57.30;;;;;;6194226;23;20355;-74
2023/05/24 08:13:37;;;;;;;12.70;3.87;;;14.60;56.60;;;;;;6193143;23;20378;-74
2023/05/24 08:16:05;;;;;;;13.43;4.03;;;14.60;56.90;;;;;;6193481;23;20456;-75
2023/05/24 08:18:32;;;;;;;12.50;4.37;;;14.60;57.50;;;;;;6192329;23;20383;-71
2023/05/24 08:20:57;;;;;;;10.67;4.53;;;14.70;57.70;;;;;;6169198;23;20146;-74
2023/05/24 08:23:23;;;;;;;10.33;4.60;;;14.90;56.20;;;;;;6167262;23;20378;-72
2023/05/24 08:25:48;;;;;;;9.67;3.80;;;14.80;54.90;;;;;;6167909;23;20182;-74
2023/05/24 08:28:15;;;;;;;11.63;4.50;;;14.70;55.70;;;;;;6171122;23;20279;-73
2023/05/24 08:30:42;;;;;;;12.40;3.70;;;14.80;55.20;;;;;;6169163;23;20481;-72
2023/05/24 08:33:07;;;;;;;14.03;5.37;;;14.80;55.40;;;;;;6190130;23;20451;-74
2023/05/24 08:35:34;;;;;;;11.57;4.00;;;15.00;54.50;;;;;;6190767;23;20671;-75
2023/05/24 08:38:00;;;;;;;12.40;5.80;;;15.00;53.80;;;;;;6196110;23;20198;-73
2023/05/24 08:40:26;;;;;;;14.10;4.53;;;15.20;53.60;;;;;;6171683;23;20394;-73
2023/05/24 08:42:52;;;;;;;19.83;5.83;;;15.30;52.70;;;;;;6172360;23;20143;-73
2023/05/24 08:45:20;;;;;;;11.70;4.97;;;15.00;53.20;;;;;;6170472;23;20166;-72
2023/05/24 08:47:46;;;;;;;10.77;4.50;;;14.80;54.10;;;;;;6172049;23;20382;-73
2023/05/24 08:50:12;;;;;;;17.27;6.00;;;14.70;55.50;;;;;;6174036;23;20396;-74
2023/05/24 08:52:39;;;;;;;19.10;5.00;;;14.60;56.80;;;;;;6199074;23;20134;-72
2023/05/24 08:55:06;;;;;;;10.27;4.23;;;14.60;56.20;;;;;;6173388;23;20372;-75
2023/05/24 08:57:33;;;;;;;9.60;4.23;;;14.70;56.40;;;;;;6148180;23;20398;-73
2023/05/24 08:59:59;;;;;;;13.57;4.83;;;15.00;55.00;;;;;;6196550;23;20473;-74
2023/05/24 09:02:26;;;;;;;18.30;5.57;;;15.10;54.60;;;;;;6198979;23;20373;-72
2023/05/24 09:04:53;;;;;;;12.07;4.60;;;15.20;54.20;;;;;;6148590;23;20444;-74
2023/05/24 09:07:23;;;;;;;13.43;4.90;;;15.00;54.60;;;;;;6172818;23;20448;-73
2023/05/24 09:10:08;;;;;;;12.10;5.00;;;14.90;54.90;;;;;;6150591;23;20398;-75
2023/05/24 09:12:35;;;;;;;12.37;5.33;;;15.00;54.60;;;;;;6148433;23;20444;-73
2023/05/24 09:15:02;;;;;;;13.60;6.10;;;15.20;53.70;;;;;;6173473;23;20457;-72
2023/05/24 09:17:30;;;;;;;7.80;4.53;;;15.20;53.00;;;;;;6175437;23;20368;-72
2023/05/24 09:19:58;;;;;;;12.17;5.77;;;15.30;53.30;;;;;;6199619;23;20426;-73
2023/05/24 09:22:26;;;;;;;10.70;5.00;;;15.30;53.50;;;;;;6173755;23;20437;-72
2023/05/24 09:24:56;;;;;;;9.30;5.13;;;15.40;53.10;;;;;;6197673;23;20412;-73
2023/05/24 09:27:22;;;;;;;13.67;6.70;;;15.30;53.50;;;;;;6145861;23;20381;-74
2023/05/24 09:29:50;;;;;;;17.50;6.07;;;15.20;53.30;;;;;;6200511;23;20482;-71
2023/05/24 09:32:17;;;;;;;16.70;5.90;;;15.20;53.60;;;;;;6172342;23;20260;-74
2023/05/24 09:34:46;;;;;;;24.00;6.20;;;15.20;53.40;;;;;;6201517;23;20421;-73
2023/05/24 09:37:16;;;;;;;15.93;5.80;;;15.30;53.60;;;;;;6200941;23;20456;-74
2023/05/24 09:39:46;;;;;;;19.07;8.07;;;15.50;54.30;;;;;;6202624;23;20810;-74
2023/05/24 09:42:23;;;;;;;21.97;8.93;;;15.60;53.70;;;;;;6177936;23;20358;-74
2023/05/24 09:45:09;;;;;;;20.17;7.20;;;15.40;54.20;;;;;;6203986;23;20449;-74
2023/05/24 09:47:36;;;;;;;12.50;6.77;;;15.40;54.10;;;;;;6176584;23;20425;-73
2023/05/24 09:50:04;;;;;;;20.47;9.13;;;15.80;53.70;;;;;;6175929;23;20396;-73
2023/05/24 09:52:30;;;;;;;13.90;7.10;;;16.00;52.50;;;;;;6152908;23;20370;-72
2023/05/24 09:54:55;;;;;;;14.33;8.07;;;16.10;52.50;;;;;;6177674;23;20417;-73
2023/05/24 09:57:21;;;;;;;14.23;6.20;;;16.20;51.50;;;;;;6201757;23;20139;-74
2023/05/24 09:59:49;;;;;;;16.67;7.77;;;16.20;51.50;;;;;;6152639;23;20201;-75
2023/05/24 10:02:17;;;;;;;16.67;9.70;;;16.20;51.90;;;;;;6177552;23;20674;-74
2023/05/24 10:04:42;;;;;;;12.40;10.27;;;16.30;51.80;;;;;;6151045;23;20473;-76
2023/05/24 10:07:09;;;;;;;22.30;10.20;;;16.20;52.20;;;;;;6201286;23;20429;-76
2023/05/24 10:09:35;;;;;;;18.33;10.10;;;16.30;52.30;;;;;;6176306;23;20206;-75
2023/05/24 10:12:03;;;;;;;18.60;10.60;;;16.50;52.10;;;;;;6177891;23;20366;-74
2023/05/24 10:14:36;;;;;;;21.27;9.80;;;16.70;51.30;;;;;;6177687;23;20150;-75
2023/05/24 10:17:06;;;;;;;20.73;12.10;;;16.60;51.60;;;;;;6202602;23;20374;-75
2023/05/24 10:19:33;;;;;;;17.87;11.70;;;16.40;51.70;;;;;;6176089;23;20704;-75
2023/05/24 10:22:00;;;;;;;14.50;9.80;;;16.30;52.40;;;;;;6176877;23;20378;-76
2023/05/24 10:24:34;;;;;;;13.30;8.00;;;16.30;52.00;;;;;;6178869;23;20419;-75
2023/05/24 10:27:06;;;;;;;21.00;10.23;;;16.40;52.20;;;;;;6150700;23;20404;-73
2023/05/24 10:30:08;;;;;;;24.37;11.77;;;16.50;51.30;;;;;;6175630;23;20432;-75
2023/05/24 10:32:36;;;;;;;19.73;11.30;;;16.60;51.70;;;;;;6178859;23;20405;-76
2023/05/24 10:35:04;;;;;;;18.80;11.10;;;16.70;51.60;;;;;;6206916;23;20372;-76
2023/05/24 10:37:31;;;;;;;20.23;9.13;;;16.90;51.10;;;;;;6206852;23;20447;-75
2023/05/24 10:39:58;;;;;;;22.83;12.10;;;16.90;50.10;;;;;;6152522;23;20432;-76
2023/05/24 10:42:23;;;;;;;20.97;13.20;;;16.80;51.30;;;;;;6201960;23;20855;-74
2023/05/24 10:44:49;;;;;;;20.50;10.40;;;16.80;52.00;;;;;;6174095;23;20441;-72
2023/05/24 10:47:16;;;;;;;13.20;9.97;;;16.70;51.70;;;;;;6202922;23;20158;-75
2023/05/24 10:49:51;;;;;;;21.30;11.03;;;16.50;51.90;;;;;;6174504;23;20208;-75
2023/05/24 10:52:17;;;;;;;15.60;9.23;;;16.60;51.90;;;;;;6176417;23;20367;-76
2023/05/24 10:55:03;;;;;;;15.83;7.60;;;16.90;51.30;;;;;;6203370;23;20415;-77
2023/05/24 10:57:30;;;;;;;13.30;8.40;;;17.00;50.70;;;;;;6204385;23;20392;-74
2023/05/24 10:59:57;;;;;;;11.40;7.60;;;17.20;50.50;;;;;;6205671;23;20394;-74
2023/05/24 11:02:27;;;;;;;16.77;8.27;;;17.30;50.30;;;;;;6204420;23;20728;-74
2023/05/24 11:04:55;;;;;;;12.80;8.30;;;17.60;49.40;;;;;;6177998;23;20484;-76
2023/05/24 11:07:20;;;;;;;22.50;10.20;;;17.70;49.00;;;;;;6202546;23;20392;-74
2023/05/24 11:09:51;;;;;;;13.23;8.90;;;17.70;48.20;;;;;;6200325;23;20435;-75
2023/05/24 11:12:21;;;;;;;18.03;9.97;;;17.50;48.80;;;;;;6178175;23;20149;-73
2023/05/24 11:14:51;;;;;;;12.63;8.30;;;17.70;47.90;;;;;;6204477;23;20404;-75
2023/05/24 11:17:22;;;;;;;20.80;9.77;;;17.80;48.50;;;;;;6180385;23;20359;-75
2023/05/24 11:19:51;;;;;;;14.13;8.67;;;18.10;46.90;;;;;;6203894;23;20388;-73
2023/05/24 11:22:19;;;;;;;12.93;8.27;;;18.10;46.30;;;;;;6201496;23;20372;-74
2023/05/24 11:24:46;;;;;;;14.70;7.83;;;18.20;46.30;;;;;;6200886;23;20412;-75
2023/05/24 11:27:13;;;;;;;17.00;7.90;;;18.40;46.90;;;;;;6175455;23;20458;-75
2023/05/24 11:29:46;;;;;;;15.80;8.50;;;18.40;47.10;;;;;;6201531;23;20397;-74
2023/05/24 11:32:17;;;;;;;14.77;8.13;;;18.50;47.10;;;;;;6202628;23;20374;-75
2023/05/24 11:34:45;;;;;;;17.77;8.20;;;18.40;47.10;;;;;;6174685;23;20442;-75
2023/05/24 11:37:11;;;;;;;16.10;8.37;;;18.40;47.10;;;;;;6175031;23;20433;-75
2023/05/24 11:39:38;;;;;;;11.57;6.83;;;18.40;47.10;;;;;;6196984;23;20435;-73
2023/05/24 11:42:05;;;;;;;15.57;7.10;;;18.40;47.40;;;;;;6172750;23;20151;-74
2023/05/24 11:44:31;;;;;;;15.10;7.70;;;18.40;46.70;;;;;;6150954;23;20440;-75
2023/05/24 11:47:01;;;;;;;12.47;6.80;;;18.30;46.50;;;;;;6201619;23;20783;-73
2023/05/24 11:49:27;;;;;;;13.20;6.50;;;17.90;45.50;;;;;;6176747;23;20417;-75
2023/05/24 11:51:55;;;;;;;19.93;7.33;;;17.40;46.90;;;;;;6176462;23;20774;-72
2023/05/24 11:54:22;;;;;;;18.33;7.67;;;17.30;48.40;;;;;;6198457;23;20811;-76
2023/05/24 11:56:47;;;;;;;19.30;9.40;;;17.10;49.50;;;;;;6177335;23;20346;-75
2023/05/24 11:59:21;;;;;;;11.70;6.33;;;16.90;49.60;;;;;;6200229;23;20393;-75
2023/05/24 12:01:47;;;;;;;10.53;5.70;;;16.70;50.40;;;;;;6179316;23;20157;-75
2023/05/24 12:04:13;;;;;;;12.33;6.03;;;16.50;50.60;;;;;;6202237;23;20474;-76
2023/05/24 12:06:41;;;;;;;18.27;7.33;;;16.50;51.00;;;;;;6176237;23;20155;-76
2023/05/24 12:09:09;;;;;;;17.37;6.43;;;16.50;50.80;;;;;;6201124;23;20158;-75
2023/05/24 12:11:40;;;;;;;18.30;7.40;;;16.40;50.60;;;;;;6154885;23;20362;-75
2023/05/24 12:14:10;;;;;;;10.40;4.83;;;16.40;50.90;;;;;;6204040;23;20865;-75
2023/05/24 12:16:36;;;;;;;9.63;5.70;;;16.50;50.90;;;;;;6174641;23;20552;-73
2023/05/24 12:19:01;;;;;;;11.23;5.60;;;16.50;50.10;;;;;;6197825;23;20816;-74
2023/05/24 12:21:30;;;;;;;11.90;5.40;;;16.40;49.40;;;;;;6150309;23;20179;-74
2023/05/24 12:23:56;;;;;;;13.17;6.40;;;16.30;49.30;;;;;;6172996;23;20143;-74
2023/05/24 12:26:22;;;;;;;14.33;6.00;;;16.30;49.40;;;;;;6173770;23;20405;-73
2023/05/24 12:28:53;;;;;;;14.83;5.77;;;16.10;49.60;;;;;;6198056;23;20173;-76
2023/05/24 12:31:20;;;;;;;12.03;5.40;;;16.00;49.80;;;;;;6199485;23;20427;-74
2023/05/24 12:33:46;;;;;;;11.73;5.67;;;16.30;49.90;;;;;;6199020;23;20405;-74
2023/05/24 12:36:12;;;;;;;11.63;5.30;;;16.60;49.50;;;;;;6196750;23;20485;-74
2023/05/24 12:38:38;;;;;;;10.50;5.50;;;16.90;49.30;;;;;;6171977;23;20488;-75
2023/05/24 12:41:05;;;;;;;9.07;4.17;;;17.20;49.20;;;;;;6169732;23;20375;-74
2023/05/24 12:43:31;;;;;;;12.27;4.70;;;17.60;48.10;;;;;;6196458;23;20145;-75